Holland, Michigan
Current Conditions -  °F | °C
As of 5:53 PM on Monday 20 Oct 2014 (Local Time) from KBIV Reporting Station
Overcast Overcast  
Wind Chill: 55°   Ceiling: 6000
Heat Index: 55°   Visibility: 10mi
Dew Point: 46°   Wind: 13mph
Humidity: 72%   Direction: 310°NW
Pressure: 29.87"   Gusts: 21mph
Location:  42.77°N, 86.1°W
Report Text: KBIV 202153Z AUTO 31011G18KT 10SM OVC060 13/08 A2987 RMK AO2 SLPNO T01280078
Loading
Personal Weather Stations






























Interactive Weather Map
Tropical Storm Tracking
New forecast layout! Learn more

10-Day Weather Forecast

Advertisements
Track Severe Weather on mobile